sensor_id;sensor_type;location;lat;lon;timestamp;pressure;altitude;pressure_sealevel;temperature;humidity
24752;BME280;27246;52.376;4.628;2023-03-14T00:01:38;98599.44;;;9.31;87.04
24752;BME280;27246;52.376;4.628;2023-03-14T00:06:40;98587.81;;;9.29;86.73
24752;BME280;27246;52.376;4.628;2023-03-14T00:11:42;98603.63;;;9.34;86.75
24752;BME280;27246;52.376;4.628;2023-03-14T00:16:47;98606.25;;;9.10;88.67
24752;BME280;27246;52.376;4.628;2023-03-14T00:21:48;98601.50;;;9.17;88.48
24752;BME280;27246;52.376;4.628;2023-03-14T00:26:50;98600.50;;;9.12;88.35
24752;BME280;27246;52.376;4.628;2023-03-14T00:31:51;98604.19;;;9.06;88.92
24752;BME280;27246;52.376;4.628;2023-03-14T00:36:54;98614.34;;;9.05;89.71
24752;BME280;27246;52.376;4.628;2023-03-14T00:41:56;98599.91;;;9.10;89.88
24752;BME280;27246;52.376;4.628;2023-03-14T00:46:57;98612.66;;;9.04;91.33
24752;BME280;27246;52.376;4.628;2023-03-14T00:51:59;98594.06;;;9.06;91.61
24752;BME280;27246;52.376;4.628;2023-03-14T00:57:01;98586.34;;;8.96;92.69
24752;BME280;27246;52.376;4.628;2023-03-14T01:02:02;98595.22;;;8.80;94.85
24752;BME280;27246;52.376;4.628;2023-03-14T01:07:04;98598.31;;;8.84;95.54
24752;BME280;27246;52.376;4.628;2023-03-14T01:12:06;98603.81;;;8.84;96.09
24752;BME280;27246;52.376;4.628;2023-03-14T01:17:07;98604.97;;;8.76;96.86
24752;BME280;27246;52.376;4.628;2023-03-14T01:22:09;98609.00;;;8.73;97.56
24752;BME280;27246;52.376;4.628;2023-03-14T01:27:12;98611.38;;;8.70;98.12
24752;BME280;27246;52.376;4.628;2023-03-14T01:32:14;98589.25;;;8.65;99.46
24752;BME280;27246;52.376;4.628;2023-03-14T01:37:16;98583.38;;;8.61;99.41
24752;BME280;27246;52.376;4.628;2023-03-14T01:42:18;98601.00;;;8.53;99.40
24752;BME280;27246;52.376;4.628;2023-03-14T01:47:21;98610.69;;;8.31;100.00
24752;BME280;27246;52.376;4.628;2023-03-14T01:52:36;98594.72;;;8.46;100.00
24752;BME280;27246;52.376;4.628;2023-03-14T01:57:46;98588.63;;;8.44;100.00
24752;BME280;27246;52.376;4.628;2023-03-14T02:02:52;98592.38;;;8.50;100.00
24752;BME280;27246;52.376;4.628;2023-03-14T02:07:58;98585.44;;;8.66;99.50
24752;BME280;27246;52.376;4.628;2023-03-14T02:13:09;98580.03;;;8.59;99.56
24752;BME280;27246;52.376;4.628;2023-03-14T02:18:29;98574.63;;;8.71;99.07
24752;BME280;27246;52.376;4.628;2023-03-14T02:23:53;98582.84;;;8.71;98.64
24752;BME280;27246;52.376;4.628;2023-03-14T02:29:06;98571.34;;;8.80;98.38
24752;BME280;27246;52.376;4.628;2023-03-14T02:34:09;98581.84;;;8.65;98.27
24752;BME280;27246;52.376;4.628;2023-03-14T02:39:14;98573.16;;;8.68;98.70
24752;BME280;27246;52.376;4.628;2023-03-14T02:44:20;98553.25;;;8.73;98.22
24752;BME280;27246;52.376;4.628;2023-03-14T02:49:23;98550.59;;;8.66;98.63
24752;BME280;27246;52.376;4.628;2023-03-14T02:54:28;98548.25;;;8.70;98.64
24752;BME280;27246;52.376;4.628;2023-03-14T02:59:29;98538.47;;;8.74;97.89
24752;BME280;27246;52.376;4.628;2023-03-14T03:04:35;98543.19;;;8.85;97.39
24752;BME280;27246;52.376;4.628;2023-03-14T03:09:37;98550.50;;;8.91;96.10
24752;BME280;27246;52.376;4.628;2023-03-14T03:14:39;98519.25;;;8.92;96.08
24752;BME280;27246;52.376;4.628;2023-03-14T03:19:42;98520.91;;;8.93;96.14
24752;BME280;27246;52.376;4.628;2023-03-14T03:24:44;98518.09;;;9.00;95.40
24752;BME280;27246;52.376;4.628;2023-03-14T03:29:46;98525.34;;;8.94;95.29
24752;BME280;27246;52.376;4.628;2023-03-14T03:34:49;98517.59;;;9.03;94.59
24752;BME280;27246;52.376;4.628;2023-03-14T03:39:51;98527.53;;;9.04;94.67
24752;BME280;27246;52.376;4.628;2023-03-14T03:44:53;98517.72;;;8.96;95.52
24752;BME280;27246;52.376;4.628;2023-03-14T03:49:56;98522.88;;;9.05;95.75
24752;BME280;27246;52.376;4.628;2023-03-14T03:54:57;98530.13;;;8.99;98.21
24752;BME280;27246;52.376;4.628;2023-03-14T04:00:03;98535.44;;;8.82;100.00
24752;BME280;27246;52.376;4.628;2023-03-14T04:05:14;98543.00;;;8.50;100.00
24752;BME280;27246;52.376;4.628;2023-03-14T04:10:23;98542.59;;;8.46;100.00
24752;BME280;27246;52.376;4.628;2023-03-14T04:15:57;98534.81;;;8.43;100.00
24752;BME280;27246;52.376;4.628;2023-03-14T04:21:01;98533.38;;;8.40;100.00
24752;BME280;27246;52.376;4.628;2023-03-14T04:26:13;98531.09;;;8.37;100.00
24752;BME280;27246;52.376;4.628;2023-03-14T04:31:18;98535.72;;;8.37;100.00
24752;BME280;27246;52.376;4.628;2023-03-14T04:36:21;98527.56;;;8.30;100.00
24752;BME280;27246;52.376;4.628;2023-03-14T04:41:23;98525.97;;;8.23;100.00
24752;BME280;27246;52.376;4.628;2023-03-14T04:46:25;98524.34;;;8.15;100.00
24752;BME280;27246;52.376;4.628;2023-03-14T04:51:27;98528.59;;;8.11;100.00
24752;BME280;27246;52.376;4.628;2023-03-14T04:56:29;98531.75;;;8.33;100.00
24752;BME280;27246;52.376;4.628;2023-03-14T05:01:31;98527.94;;;8.15;100.00
24752;BME280;27246;52.376;4.628;2023-03-14T05:06:51;98525.31;;;8.02;100.00
24752;BME280;27246;52.376;4.628;2023-03-14T05:12:16;98548.16;;;7.96;100.00
24752;BME280;27246;52.376;4.628;2023-03-14T05:17:33;98581.56;;;7.86;100.00
24752;BME280;27246;52.376;4.628;2023-03-14T05:22:48;98599.88;;;8.17;100.00
24752;BME280;27246;52.376;4.628;2023-03-14T05:28:02;98608.41;;;8.02;100.00
24752;BME280;27246;52.376;4.628;2023-03-14T05:33:36;98619.00;;;7.99;100.00
24752;BME280;27246;52.376;4.628;2023-03-14T05:38:58;98633.59;;;8.18;100.00
24752;BME280;27246;52.376;4.628;2023-03-14T05:44:19;98633.88;;;8.35;100.00
24752;BME280;27246;52.376;4.628;2023-03-14T05:49:45;98661.44;;;8.21;100.00
24752;BME280;27246;52.376;4.628;2023-03-14T05:55:08;98666.09;;;8.14;100.00
24752;BME280;27246;52.376;4.628;2023-03-14T06:00:21;98686.53;;;8.18;100.00
24752;BME280;27246;52.376;4.628;2023-03-14T06:05:35;98693.84;;;8.31;100.00
24752;BME280;27246;52.376;4.628;2023-03-14T06:10:38;98721.50;;;8.30;100.00
24752;BME280;27246;52.376;4.628;2023-03-14T06:15:41;98728.38;;;8.39;99.52
24752;BME280;27246;52.376;4.628;2023-03-14T06:20:43;98753.47;;;8.43;98.67
24752;BME280;27246;52.376;4.628;2023-03-14T06:25:51;98756.59;;;8.21;97.73
24752;BME280;27246;52.376;4.628;2023-03-14T06:30:56;98768.47;;;8.40;96.75
24752;BME280;27246;52.376;4.628;2023-03-14T06:35:57;98785.97;;;8.46;94.61
24752;BME280;27246;52.376;4.628;2023-03-14T06:41:06;98792.59;;;8.31;92.47
24752;BME280;27246;52.376;4.628;2023-03-14T06:46:13;98797.72;;;8.21;92.48
24752;BME280;27246;52.376;4.628;2023-03-14T06:51:16;98820.66;;;8.27;92.02
24752;BME280;27246;52.376;4.628;2023-03-14T06:56:18;98840.22;;;8.37;92.30
24752;BME280;27246;52.376;4.628;2023-03-14T07:01:24;98866.69;;;9.20;89.98
24752;BME280;27246;52.376;4.628;2023-03-14T07:06:28;98902.97;;;8.97;88.78
24752;BME280;27246;52.376;4.628;2023-03-14T07:11:33;98931.09;;;9.24;87.87
24752;BME280;27246;52.376;4.628;2023-03-14T07:16:37;98959.19;;;8.94;86.36
24752;BME280;27246;52.376;4.628;2023-03-14T07:21:41;98988.78;;;9.56;82.91
24752;BME280;27246;52.376;4.628;2023-03-14T07:26:45;99015.41;;;10.06;80.13
24752;BME280;27246;52.376;4.628;2023-03-14T07:31:47;99036.44;;;9.43;80.64
24752;BME280;27246;52.376;4.628;2023-03-14T07:36:53;99064.59;;;9.38;83.87
24752;BME280;27246;52.376;4.628;2023-03-14T07:41:54;99087.94;;;8.64;81.51
24752;BME280;27246;52.376;4.628;2023-03-14T07:46:58;99119.69;;;7.87;82.77
24752;BME280;27246;52.376;4.628;2023-03-14T07:52:01;99138.56;;;7.48;84.03
24752;BME280;27246;52.376;4.628;2023-03-14T07:57:03;99159.47;;;7.56;84.39
24752;BME280;27246;52.376;4.628;2023-03-14T08:02:05;99165.97;;;7.41;82.35
24752;BME280;27246;52.376;4.628;2023-03-14T08:07:12;99179.06;;;7.53;84.14
24752;BME280;27246;52.376;4.628;2023-03-14T08:12:14;99193.44;;;7.68;84.61
24752;BME280;27246;52.376;4.628;2023-03-14T08:17:16;99222.72;;;7.61;80.19
24752;BME280;27246;52.376;4.628;2023-03-14T08:22:18;99250.31;;;7.59;80.29
24752;BME280;27246;52.376;4.628;2023-03-14T08:27:20;99260.47;;;7.72;81.66
24752;BME280;27246;52.376;4.628;2023-03-14T08:32:22;99293.78;;;7.69;78.80
24752;BME280;27246;52.376;4.628;2023-03-14T08:37:25;99313.25;;;7.81;78.65
24752;BME280;27246;52.376;4.628;2023-03-14T08:42:27;99323.31;;;7.67;79.54
24752;BME280;27246;52.376;4.628;2023-03-14T08:47:29;99339.66;;;7.54;76.31
24752;BME280;27246;52.376;4.628;2023-03-14T08:52:31;99367.97;;;7.61;78.63
24752;BME280;27246;52.376;4.628;2023-03-14T08:57:33;99395.91;;;7.85;78.08
24752;BME280;27246;52.376;4.628;2023-03-14T09:02:35;99417.81;;;7.78;75.69
24752;BME280;27246;52.376;4.628;2023-03-14T09:07:37;99451.59;;;7.85;78.22
24752;BME280;27246;52.376;4.628;2023-03-14T09:12:39;99474.59;;;7.56;79.58
24752;BME280;27246;52.376;4.628;2023-03-14T09:17:42;99486.00;;;7.38;78.87
24752;BME280;27246;52.376;4.628;2023-03-14T09:22:44;99504.34;;;7.37;79.63
24752;BME280;27246;52.376;4.628;2023-03-14T09:27:46;99506.59;;;7.49;79.62
24752;BME280;27246;52.376;4.628;2023-03-14T09:32:47;99515.00;;;7.47;79.98
24752;BME280;27246;52.376;4.628;2023-03-14T09:37:49;99538.53;;;7.63;82.65
24752;BME280;27246;52.376;4.628;2023-03-14T09:42:52;99556.28;;;7.67;78.92
24752;BME280;27246;52.376;4.628;2023-03-14T09:47:55;99592.22;;;8.07;76.75
24752;BME280;27246;52.376;4.628;2023-03-14T09:53:04;99618.69;;;7.93;70.80
24752;BME280;27246;52.376;4.628;2023-03-14T09:58:16;99620.84;;;7.98;70.90
24752;BME280;27246;52.376;4.628;2023-03-14T10:03:32;99638.66;;;8.72;73.79
24752;BME280;27246;52.376;4.628;2023-03-14T10:08:34;99663.75;;;8.34;67.95
24752;BME280;27246;52.376;4.628;2023-03-14T10:13:48;99682.63;;;8.44;68.37
24752;BME280;27246;52.376;4.628;2023-03-14T10:18:50;99696.47;;;8.64;66.55
24752;BME280;27246;52.376;4.628;2023-03-14T10:23:52;99714.88;;;9.05;66.77
24752;BME280;27246;52.376;4.628;2023-03-14T10:29:02;99731.88;;;9.56;63.48
24752;BME280;27246;52.376;4.628;2023-03-14T10:34:05;99759.66;;;9.81;62.06
24752;BME280;27246;52.376;4.628;2023-03-14T10:39:26;99778.78;;;10.16;62.18
24752;BME280;27246;52.376;4.628;2023-03-14T10:44:30;99797.50;;;10.74;63.00
24752;BME280;27246;52.376;4.628;2023-03-14T10:49:35;99818.69;;;10.80;59.25
24752;BME280;27246;52.376;4.628;2023-03-14T10:54:37;99836.28;;;10.93;56.11
24752;BME280;27246;52.376;4.628;2023-03-14T10:59:40;99847.69;;;11.43;57.01
24752;BME280;27246;52.376;4.628;2023-03-14T11:15:41;99899.69;;;11.33;48.24
24752;BME280;27246;52.376;4.628;2023-03-14T11:20:53;99911.47;;;11.87;48.36
24752;BME280;27246;52.376;4.628;2023-03-14T11:31:17;99943.34;;;11.83;56.87
24752;BME280;27246;52.376;4.628;2023-03-14T11:37:13;99977.28;;;11.83;46.52
24752;BME280;27246;52.376;4.628;2023-03-14T11:41:51;99984.69;;;11.96;42.04
24752;BME280;27246;52.376;4.628;2023-03-14T11:47:04;99981.03;;;12.09;48.89
24752;BME280;27246;52.376;4.628;2023-03-14T11:52:20;100008.38;;;12.37;45.15
24752;BME280;27246;52.376;4.628;2023-03-14T11:57:25;100026.94;;;11.70;43.64
24752;BME280;27246;52.376;4.628;2023-03-14T12:07:42;100048.13;;;12.23;45.33
24752;BME280;27246;52.376;4.628;2023-03-14T12:12:49;100046.63;;;12.40;38.82
24752;BME280;27246;52.376;4.628;2023-03-14T12:17:54;100052.91;;;12.67;44.66
24752;BME280;27246;52.376;4.628;2023-03-14T12:23:02;100077.34;;;12.70;40.87
24752;BME280;27246;52.376;4.628;2023-03-14T12:28:31;100090.84;;;12.98;51.52
24752;BME280;27246;52.376;4.628;2023-03-14T12:33:33;100100.59;;;13.08;45.39
24752;BME280;27246;52.376;4.628;2023-03-14T12:43:37;100111.44;;;12.31;39.55
24752;BME280;27246;52.376;4.628;2023-03-14T12:48:39;100127.16;;;12.37;39.71
24752;BME280;27246;52.376;4.628;2023-03-14T12:53:49;100130.31;;;12.00;36.30
24752;BME280;27246;52.376;4.628;2023-03-14T13:04:09;100155.56;;;12.71;40.71
24752;BME280;27246;52.376;4.628;2023-03-14T13:14:34;100184.75;;;13.25;46.21
24752;BME280;27246;52.376;4.628;2023-03-14T13:19:36;100197.66;;;12.86;39.25
24752;BME280;27246;52.376;4.628;2023-03-14T13:24:38;100205.22;;;13.24;38.89
24752;BME280;27246;52.376;4.628;2023-03-14T13:29:41;100212.06;;;13.08;40.15
24752;BME280;27246;52.376;4.628;2023-03-14T13:34:43;100226.97;;;12.14;36.45
24752;BME280;27246;52.376;4.628;2023-03-14T13:39:58;100243.94;;;11.97;42.05
24752;BME280;27246;52.376;4.628;2023-03-14T13:45:00;100260.06;;;11.94;40.77
24752;BME280;27246;52.376;4.628;2023-03-14T13:50:01;100279.56;;;11.92;43.14
24752;BME280;27246;52.376;4.628;2023-03-14T13:55:05;100287.06;;;12.18;42.13
24752;BME280;27246;52.376;4.628;2023-03-14T14:00:24;100297.66;;;11.95;38.66
24752;BME280;27246;52.376;4.628;2023-03-14T14:05:29;100295.22;;;11.72;38.11
24752;BME280;27246;52.376;4.628;2023-03-14T14:10:31;100315.25;;;11.94;39.37
24752;BME280;27246;52.376;4.628;2023-03-14T14:15:36;100333.16;;;11.56;38.78
24752;BME280;27246;52.376;4.628;2023-03-14T14:20:44;100342.66;;;11.54;40.29
24752;BME280;27246;52.376;4.628;2023-03-14T14:25:48;100349.38;;;11.10;38.01
24752;BME280;27246;52.376;4.628;2023-03-14T14:41:34;100385.41;;;10.87;37.41
24752;BME280;27246;52.376;4.628;2023-03-14T14:46:37;100385.91;;;10.90;37.79
24752;BME280;27246;52.376;4.628;2023-03-14T14:51:44;100407.34;;;10.95;38.79
24752;BME280;27246;52.376;4.628;2023-03-14T14:56:52;100418.69;;;10.64;38.68
24752;BME280;27246;52.376;4.628;2023-03-14T15:01:56;100417.56;;;10.58;40.32
24752;BME280;27246;52.376;4.628;2023-03-14T15:06:59;100432.88;;;10.09;40.36
24752;BME280;27246;52.376;4.628;2023-03-14T15:12:01;100444.81;;;10.16;42.25
24752;BME280;27246;52.376;4.628;2023-03-14T15:17:03;100435.25;;;10.12;42.68
24752;BME280;27246;52.376;4.628;2023-03-14T15:22:11;100441.84;;;10.33;41.58
24752;BME280;27246;52.376;4.628;2023-03-14T15:27:15;100463.16;;;10.09;41.38
24752;BME280;27246;52.376;4.628;2023-03-14T15:32:17;100467.75;;;10.53;39.52
24752;BME280;27246;52.376;4.628;2023-03-14T15:37:19;100491.38;;;10.84;41.02
24752;BME280;27246;52.376;4.628;2023-03-14T15:42:21;100487.50;;;10.42;39.13
24752;BME280;27246;52.376;4.628;2023-03-14T15:47:22;100501.19;;;9.61;38.91
24752;BME280;27246;52.376;4.628;2023-03-14T15:52:24;100507.94;;;9.73;40.66
24752;BME280;27246;52.376;4.628;2023-03-14T15:57:26;100516.34;;;9.72;40.33
24752;BME280;27246;52.376;4.628;2023-03-14T16:02:28;100524.66;;;9.87;41.57
24752;BME280;27246;52.376;4.628;2023-03-14T16:07:30;100534.19;;;9.38;41.45
24752;BME280;27246;52.376;4.628;2023-03-14T16:12:34;100542.50;;;9.53;42.16
24752;BME280;27246;52.376;4.628;2023-03-14T16:17:36;100549.53;;;9.55;42.15
24752;BME280;27246;52.376;4.628;2023-03-14T16:22:39;100557.34;;;9.20;41.74
24752;BME280;27246;52.376;4.628;2023-03-14T16:27:40;100568.25;;;9.06;39.82
24752;BME280;27246;52.376;4.628;2023-03-14T16:32:46;100568.06;;;8.84;41.18
24752;BME280;27246;52.376;4.628;2023-03-14T16:37:48;100573.38;;;8.77;42.04
24752;BME280;27246;52.376;4.628;2023-03-14T16:42:50;100588.72;;;8.72;43.54
24752;BME280;27246;52.376;4.628;2023-03-14T16:48:12;100599.53;;;9.05;42.06
24752;BME280;27246;52.376;4.628;2023-03-14T16:53:13;100605.50;;;8.77;40.11
24752;BME280;27246;52.376;4.628;2023-03-14T16:58:16;100615.72;;;8.60;39.48
24752;BME280;27246;52.376;4.628;2023-03-14T17:03:18;100624.47;;;8.47;39.83
24752;BME280;27246;52.376;4.628;2023-03-14T17:08:20;100630.38;;;8.36;40.59
24752;BME280;27246;52.376;4.628;2023-03-14T17:13:22;100635.75;;;8.21;41.02
24752;BME280;27246;52.376;4.628;2023-03-14T17:18:27;100639.16;;;8.23;40.72
24752;BME280;27246;52.376;4.628;2023-03-14T17:23:30;100647.91;;;8.02;40.92
24752;BME280;27246;52.376;4.628;2023-03-14T17:28:32;100663.38;;;8.03;41.71
24752;BME280;27246;52.376;4.628;2023-03-14T17:33:35;100673.81;;;7.99;42.04
24752;BME280;27246;52.376;4.628;2023-03-14T17:38:36;100677.41;;;8.00;42.69
24752;BME280;27246;52.376;4.628;2023-03-14T17:43:38;100699.53;;;7.90;43.84
24752;BME280;27246;52.376;4.628;2023-03-14T17:48:41;100709.47;;;7.83;43.32
24752;BME280;27246;52.376;4.628;2023-03-14T17:53:43;100715.47;;;7.87;43.01
24752;BME280;27246;52.376;4.628;2023-03-14T17:58:45;100714.97;;;7.75;44.36
24752;BME280;27246;52.376;4.628;2023-03-14T18:03:47;100722.84;;;7.86;44.55
24752;BME280;27246;52.376;4.628;2023-03-14T18:08:49;100724.72;;;7.69;45.69
24752;BME280;27246;52.376;4.628;2023-03-14T18:13:51;100723.16;;;7.58;46.82
24752;BME280;27246;52.376;4.628;2023-03-14T18:18:53;100740.09;;;7.62;46.81
24752;BME280;27246;52.376;4.628;2023-03-14T18:23:57;100740.25;;;7.52;47.14
24752;BME280;27246;52.376;4.628;2023-03-14T18:28:58;100745.72;;;7.52;47.84
24752;BME280;27246;52.376;4.628;2023-03-14T18:34:02;100738.41;;;7.61;48.21
24752;BME280;27246;52.376;4.628;2023-03-14T18:39:05;100741.66;;;7.56;48.41
24752;BME280;27246;52.376;4.628;2023-03-14T18:44:08;100748.84;;;7.57;48.26
24752;BME280;27246;52.376;4.628;2023-03-14T18:49:10;100745.56;;;7.46;49.01
24752;BME280;27246;52.376;4.628;2023-03-14T18:54:11;100736.66;;;7.52;48.73
24752;BME280;27246;52.376;4.628;2023-03-14T18:59:13;100749.50;;;7.51;49.71
24752;BME280;27246;52.376;4.628;2023-03-14T19:04:15;100750.03;;;7.55;50.65
24752;BME280;27246;52.376;4.628;2023-03-14T19:09:19;100751.56;;;7.49;51.45
24752;BME280;27246;52.376;4.628;2023-03-14T19:14:20;100743.19;;;7.59;50.91
24752;BME280;27246;52.376;4.628;2023-03-14T19:19:22;100747.78;;;7.50;51.57
24752;BME280;27246;52.376;4.628;2023-03-14T19:24:24;100756.63;;;7.36;50.87
24752;BME280;27246;52.376;4.628;2023-03-14T19:29:25;100751.63;;;7.23;51.90
24752;BME280;27246;52.376;4.628;2023-03-14T19:34:27;100750.53;;;7.16;54.50
24752;BME280;27246;52.376;4.628;2023-03-14T19:39:30;100761.31;;;7.09;54.81
24752;BME280;27246;52.376;4.628;2023-03-14T19:44:32;100760.31;;;7.10;54.34
24752;BME280;27246;52.376;4.628;2023-03-14T19:49:34;100764.16;;;6.99;52.49
24752;BME280;27246;52.376;4.628;2023-03-14T19:54:35;100765.00;;;6.92;51.37
24752;BME280;27246;52.376;4.628;2023-03-14T19:59:37;100773.28;;;7.00;51.88
24752;BME280;27246;52.376;4.628;2023-03-14T20:04:39;100781.31;;;7.01;51.54
24752;BME280;27246;52.376;4.628;2023-03-14T20:09:44;100796.47;;;6.88;51.84
24752;BME280;27246;52.376;4.628;2023-03-14T20:14:46;100788.78;;;6.91;51.97
24752;BME280;27246;52.376;4.628;2023-03-14T20:19:48;100798.44;;;7.04;53.55
24752;BME280;27246;52.376;4.628;2023-03-14T20:24:49;100789.91;;;7.07;53.64
24752;BME280;27246;52.376;4.628;2023-03-14T20:29:55;100784.72;;;7.04;54.21
24752;BME280;27246;52.376;4.628;2023-03-14T20:34:57;100779.25;;;7.04;54.99
24752;BME280;27246;52.376;4.628;2023-03-14T20:39:59;100789.94;;;7.15;54.93
24752;BME280;27246;52.376;4.628;2023-03-14T20:45:00;100802.59;;;7.16;54.53
24752;BME280;27246;52.376;4.628;2023-03-14T20:50:03;100811.69;;;7.16;56.69
24752;BME280;27246;52.376;4.628;2023-03-14T20:55:05;100820.78;;;6.91;61.13
24752;BME280;27246;52.376;4.628;2023-03-14T21:00:08;100822.53;;;6.92;62.55
24752;BME280;27246;52.376;4.628;2023-03-14T21:05:10;100827.91;;;6.84;63.65
24752;BME280;27246;52.376;4.628;2023-03-14T21:10:12;100849.81;;;6.84;65.87
24752;BME280;27246;52.376;4.628;2023-03-14T21:15:14;100870.28;;;6.53;64.41
24752;BME280;27246;52.376;4.628;2023-03-14T21:20:16;100862.97;;;6.18;64.53
24752;BME280;27246;52.376;4.628;2023-03-14T21:25:18;100860.22;;;6.36;65.39
24752;BME280;27246;52.376;4.628;2023-03-14T21:30:20;100875.25;;;6.50;66.82
24752;BME280;27246;52.376;4.628;2023-03-14T21:35:21;100903.13;;;6.53;66.51
24752;BME280;27246;52.376;4.628;2023-03-14T21:40:23;100893.97;;;7.07;67.48
24752;BME280;27246;52.376;4.628;2023-03-14T21:45:25;100905.00;;;6.71;68.81
24752;BME280;27246;52.376;4.628;2023-03-14T21:50:27;100906.97;;;6.25;71.20
24752;BME280;27246;52.376;4.628;2023-03-14T21:55:29;100905.53;;;6.03;72.28
24752;BME280;27246;52.376;4.628;2023-03-14T22:00:30;100906.25;;;6.22;73.09
24752;BME280;27246;52.376;4.628;2023-03-14T22:05:32;100923.94;;;6.46;72.48
24752;BME280;27246;52.376;4.628;2023-03-14T22:10:34;100931.91;;;6.21;71.97
24752;BME280;27246;52.376;4.628;2023-03-14T22:15:35;100936.16;;;6.06;72.54
24752;BME280;27246;52.376;4.628;2023-03-14T22:20:37;100942.09;;;6.29;71.95
24752;BME280;27246;52.376;4.628;2023-03-14T22:25:44;100941.00;;;6.58;71.22
24752;BME280;27246;52.376;4.628;2023-03-14T22:30:47;100948.72;;;6.63;71.27
24752;BME280;27246;52.376;4.628;2023-03-14T22:35:51;100964.38;;;6.07;73.20
24752;BME280;27246;52.376;4.628;2023-03-14T22:40:59;100962.72;;;5.96;74.23
24752;BME280;27246;52.376;4.628;2023-03-14T22:46:04;100971.31;;;5.73;75.01
24752;BME280;27246;52.376;4.628;2023-03-14T22:51:07;100967.63;;;5.65;75.73
24752;BME280;27246;52.376;4.628;2023-03-14T22:56:10;100963.00;;;5.65;75.66
24752;BME280;27246;52.376;4.628;2023-03-14T23:01:12;100975.03;;;5.72;76.25
24752;BME280;27246;52.376;4.628;2023-03-14T23:06:14;100973.69;;;5.58;76.44
24752;BME280;27246;52.376;4.628;2023-03-14T23:11:16;100976.41;;;5.58;76.56
24752;BME280;27246;52.376;4.628;2023-03-14T23:16:18;100985.16;;;5.62;76.08
24752;BME280;27246;52.376;4.628;2023-03-14T23:21:28;100995.19;;;5.71;76.50
24752;BME280;27246;52.376;4.628;2023-03-14T23:26:29;100993.75;;;5.77;76.65
24752;BME280;27246;52.376;4.628;2023-03-14T23:31:33;100989.13;;;5.77;76.52
24752;BME280;27246;52.376;4.628;2023-03-14T23:36:35;100973.19;;;5.73;75.94
24752;BME280;27246;52.376;4.628;2023-03-14T23:41:37;100977.47;;;5.75;75.61
24752;BME280;27246;52.376;4.628;2023-03-14T23:46:39;100977.88;;;5.80;74.59
24752;BME280;27246;52.376;4.628;2023-03-14T23:51:41;100987.16;;;5.60;74.40
24752;BME280;27246;52.376;4.628;2023-03-14T23:56:42;100989.78;;;5.52;72.64
